• Join FlightAware (Why Join?)
  • Login
  • US Flag 
06:03AM EDT


 

Airport Tracker/Info


-or-


 

Live Flight TrackerFlight Track Log ✈ N357BE ✈ 02-May-2013 ✈ KSTP - KBIS

Flight Track Log - Related Links

Times and Time Zones

All times are in EDT time to prevent confusion due to time zone crossing. See the N357BE flight status page for this flight to view local times or setup timezone preferences in your user account.

Time Position Orientation Groundspeed Altitude Reporting Facility
EDT Latitude Longitude Course Direction KTS MPH feet Rate Location/Type
03:05PM 44.9631 -93.0717 36° Northeast 194 223 2,200  Level Minneapolis Center
03:06PM 45.0100 -93.0233 36° Northeast 204 235 5,200 1,620 Climbing Minneapolis Center
03:07PM 45.0742 -93.0350 353° North 228 262 6,000 540 Climbing Minneapolis Center
03:08PM 45.1014 -93.1275 293° West 256 295 6,400 480 Climbing Minneapolis Center
03:09PM 45.1144 -93.2442 279° West 253 291 7,000 240 Climbing Minneapolis Center
03:10PM 45.1261 -93.3469 279° West 265 305 7,000 960 Level Minneapolis Center
03:11PM 45.1264 -93.4475 270° West 272 313 9,100 3,240 Climbing Minneapolis Center
03:12PM 45.1019 -93.5561 252° West 292 336 13,700 3,720 Climbing Minneapolis Center
03:13PM 45.1261 -93.6647 288° West 295 339 17,600 3,420 Climbing Minneapolis Center
03:14PM 45.1678 -93.8156 291° West 297 342 21,500 3,000 Climbing Minneapolis Center
03:15PM 45.1975 -93.9267 291° West 301 346 23,900 1,980 Climbing Minneapolis Center
03:16PM 45.2236 -94.0447 287° West 314 361 26,100 2,160 Climbing Minneapolis Center
03:17PM 45.2386 -94.1942 278° West 319 367 28,900 2,340 Climbing Minneapolis Center
03:19PM 45.2731 -94.3186 292° West 338 389 31,000 1,920 Climbing Minneapolis Center
03:20PM 45.3064 -94.4464 290° West 345 397 32,900 1,860 Climbing Minneapolis Center
03:21PM 45.3469 -94.5986 291° West 346 398 34,900 1,800 Climbing Minneapolis Center
03:22PM 45.3789 -94.7197 291° West 344 396 36,700 1,560 Climbing Minneapolis Center
03:23PM 45.4147 -94.8508 291° West 346 398 38,200 1,140 Climbing Minneapolis Center
03:24PM 45.4400 -94.9508 290° West 341 392 39,100 840 Climbing Minneapolis Center
03:25PM 45.4842 -95.1236 290° West 343 395 40,000 360 Climbing Minneapolis Center
03:26PM 45.5192 -95.2581 290° West 359 413 40,000  Level Minneapolis Center
03:27PM 45.5642 -95.4319 290° West 386 444 40,000  Level Minneapolis Center
03:28PM 45.6017 -95.5808 290° West 399 459 40,000  Level Minneapolis Center
03:29PM 45.6400 -95.7336 290° West 408 470 40,000  Level Minneapolis Center
03:30PM 45.6875 -95.9156 291° West 410 472 40,000  Level Minneapolis Center
03:31PM 45.7328 -96.0983 290° West 410 472 40,000  Level Minneapolis Center
03:32PM 45.7714 -96.2539 290° West 414 476 40,000  Level Minneapolis Center
03:33PM 45.8089 -96.4094 289° West 415 478 40,000  Level Minneapolis Center
03:34PM 45.8467 -96.5608 290° West 410 472 40,000  Level Minneapolis Center
03:35PM 45.8839 -96.7167 289° West 413 475 40,000  Level Minneapolis Center
03:36PM 45.9211 -96.8728 289° West 414 476 40,000  Level Minneapolis Center
03:37PM 45.9617 -97.0300 290° West 417 480 40,000  Level Minneapolis Center
03:38PM 45.9969 -97.1867 288° West 416 479 40,000  Level Minneapolis Center
03:40PM 46.0344 -97.3408 289° West 409 471 40,000  Level Minneapolis Center
03:41PM 46.0781 -97.5267 289° West 409 471 40,000  Level Minneapolis Center
03:42PM 46.1133 -97.6828 288° West 409 471 40,000  Level Minneapolis Center
03:43PM 46.1497 -97.8367 289° West 408 470 40,000  Level Minneapolis Center
03:44PM 46.1844 -97.9925 288° West 408 470 40,000  Level Minneapolis Center
03:45PM 46.2211 -98.1472 289° West 407 468 40,000  Level Minneapolis Center
03:46PM 46.2561 -98.3047 288° West 412 474 40,000 -180 Level Minneapolis Center
03:47PM 46.2917 -98.4617 288° West 410 472 39,700 -780 Descending Minneapolis Center
03:48PM 46.3303 -98.6847 284° West 407 468 38,300 -1,620 Descending Minneapolis Center
03:49PM 46.3456 -98.8469 278° West 406 467 36,500 -2,040 Descending Minneapolis Center
03:50PM 46.3608 -98.9731 280° West 403 464 34,200 -2,880 Descending Minneapolis Center
03:51PM 46.3792 -99.1644 278° West 401 461 30,600 -3,300 Descending Minneapolis Center
03:52PM 46.3956 -99.3403 278° West 401 461 27,400 -2,760 Descending Minneapolis Center
03:53PM 46.3992 -99.5025 272° West 403 464 24,400 -2,940 Descending Minneapolis Center
03:54PM 46.4444 -99.6661 292° West 371 427 20,800 -3,000 Descending Minneapolis Center
03:55PM 46.4844 -99.7933 295° West 355 409 18,300 -2,040 Descending Minneapolis Center
03:56PM 46.5228 -99.9167 294° West 345 397 16,700 -2,100 Descending Minneapolis Center
03:57PM 46.5628 -100.0489 294° West 330 380 14,100 -2,520 Descending Minneapolis Center
03:58PM 46.6000 -100.1722 294° West 316 364 11,500 -2,460 Descending Minneapolis Center
03:59PM 46.6197 -100.2828 285° West 312 359 9,100 -2,220 Descending Minneapolis Center
04:01PM 46.6553 -100.3861 297° West 273 314 6,900 -1,860 Descending Minneapolis Center
04:02PM 46.6797 -100.4764 292° West 240 276 5,200 -1,500 Descending Minneapolis Center
04:03PM 46.6972 -100.5664 286° West 229 264 3,800 -900 Descending Minneapolis Center
04:04PM 46.7133 -100.6414 287° West 199 229 3,400 -600 Descending Minneapolis Center
04:05PM 46.7319 -100.6961 296° West 142 163 2,600 -720 Descending Minneapolis Center
04:06PM 46.7558 -100.7253 320° Northwest 113 130 2,000 -540 Descending Minneapolis Center
04:07PM 46.7778 -100.7517 321° Northwest 113 130 1,600 -420 Descending Minneapolis Center
04:09PM 46.7727 -100.7458 90° East  Level Estimated